createdAt,value
2022-09-29T08:29:41.163Z,14.95
2022-09-29T08:31:47.392Z,14.95
2022-09-29T08:33:51.337Z,14.75
2022-09-29T08:36:01.534Z,14.94
2022-09-29T08:38:04.037Z,15.17
2022-09-29T08:40:08.673Z,14.71
2022-09-29T08:42:22.700Z,14.71
2022-09-29T08:44:52.179Z,14.88
2022-09-29T08:47:08.883Z,15.22
2022-09-29T08:49:31.970Z,15.35
2022-09-29T08:51:49.148Z,14.93
2022-09-29T08:54:02.784Z,14.77
2022-09-29T08:56:16.877Z,15.11
2022-09-29T08:58:20.970Z,15.30
2022-09-29T09:00:33.497Z,15.48
2022-09-29T09:02:57.682Z,15.75
2022-09-29T09:05:29.293Z,15.78
2022-09-29T09:08:03.505Z,16.06
2022-09-29T09:10:25.640Z,16.44
2022-09-29T09:12:27.725Z,16.46
2022-09-29T09:14:50.447Z,16.52
2022-09-29T09:17:02.002Z,16.65
2022-09-29T09:19:19.538Z,16.86
2022-09-29T09:21:36.919Z,16.94
2022-09-29T09:23:59.865Z,17.41
2022-09-29T09:26:04.372Z,17.56
2022-09-29T09:28:14.780Z,17.67
2022-09-29T09:30:19.845Z,17.50
2022-09-29T09:32:28.900Z,17.07
2022-09-29T09:34:43.911Z,17.20
2022-09-29T09:37:05.451Z,17.10
2022-09-29T09:39:19.190Z,17.33
2022-09-29T09:41:24.645Z,17.20
2022-09-29T09:43:29.761Z,17.39
2022-09-29T09:45:43.248Z,17.26
2022-09-29T09:47:54.494Z,17.35
2022-09-29T09:50:03.741Z,17.57
2022-09-29T09:52:19.241Z,17.72
2022-09-29T09:54:33.366Z,17.64
2022-09-29T09:57:00.889Z,17.74
2022-09-29T09:59:29.023Z,17.90
2022-09-29T10:01:31.446Z,18.36
2022-09-29T10:03:34.759Z,18.48
2022-09-29T10:05:40.557Z,18.67
2022-09-29T10:07:44.111Z,17.88
2022-09-29T10:09:47.936Z,18.12
2022-09-29T10:11:50.927Z,18.17
2022-09-29T10:14:00.781Z,17.41
2022-09-29T10:16:17.269Z,17.15
2022-09-29T10:18:46.432Z,16.96
2022-09-29T10:20:49.015Z,17.46
2022-09-29T10:22:51.919Z,17.25
2022-09-29T10:25:05.647Z,17.36
2022-09-29T10:27:08.046Z,16.82
2022-09-29T10:29:30.392Z,17.20
2022-09-29T10:31:35.348Z,17.42
2022-09-29T10:33:37.689Z,17.60
2022-09-29T10:35:42.083Z,18.14
2022-09-29T10:37:48.481Z,18.62
2022-09-29T10:40:01.629Z,19.02
2022-09-29T10:42:05.210Z,19.51
2022-09-29T10:44:21.643Z,19.69
2022-09-29T10:46:33.086Z,19.17
2022-09-29T10:48:35.556Z,19.55
2022-09-29T10:50:51.395Z,19.84
2022-09-29T10:52:58.603Z,19.80
2022-09-29T10:55:05.903Z,19.66
2022-09-29T10:57:16.124Z,19.53
2022-09-29T10:59:19.606Z,19.48
2022-09-29T11:01:22.944Z,19.97
2022-09-29T11:03:27.345Z,20.74
2022-09-29T11:05:29.685Z,20.45
2022-09-29T11:07:34.267Z,20.23
2022-09-29T11:09:41.961Z,20.35
2022-09-29T11:11:46.865Z,19.98
2022-09-29T11:13:50.106Z,20.11
2022-09-29T11:15:52.317Z,20.52
2022-09-29T11:17:55.269Z,21.38
2022-09-29T11:20:01.985Z,21.55
2022-09-29T11:22:49.346Z,21.07
2022-09-29T11:25:13.396Z,20.76
2022-09-29T11:27:46.837Z,20.54
2022-09-29T11:30:20.569Z,21.20
2022-09-29T11:32:44.307Z,21.14
2022-09-29T11:35:10.678Z,20.60
2022-09-29T11:37:18.849Z,19.86
2022-09-29T11:39:46.140Z,19.02
2022-09-29T11:42:02.759Z,18.98
2022-09-29T11:44:22.681Z,18.51
2022-09-29T11:46:46.907Z,18.36
2022-09-29T11:49:07.669Z,18.38
2022-09-29T11:51:20.102Z,18.35
2022-09-29T11:54:05.271Z,18.29
2022-09-29T11:56:35.976Z,18.08
2022-09-29T11:59:04.733Z,18.42
2022-09-29T12:01:10.177Z,18.22
2022-09-29T12:03:41.972Z,18.15
2022-09-29T12:05:50.195Z,17.73
2022-09-29T12:08:10.390Z,17.79
2022-09-29T12:10:44.254Z,17.66
2022-09-29T12:12:59.170Z,17.81
2022-09-29T12:15:10.155Z,17.76
2022-09-29T12:17:16.342Z,18.00
2022-09-29T12:19:23.727Z,17.96
2022-09-29T12:21:37.942Z,17.78
2022-09-29T12:23:43.838Z,17.51
2022-09-29T12:25:53.238Z,17.46
2022-09-29T12:28:01.805Z,17.51
2022-09-29T12:30:32.684Z,17.32
2022-09-29T12:32:43.693Z,17.45
2022-09-29T12:34:51.945Z,17.47
2022-09-29T12:37:05.888Z,17.40
2022-09-29T12:39:35.644Z,17.30
2022-09-29T12:41:44.888Z,17.16
2022-09-29T12:43:59.281Z,17.39
2022-09-29T12:46:29.052Z,17.52
2022-09-29T12:48:37.144Z,17.53
2022-09-29T12:50:48.446Z,17.46
2022-09-29T12:53:21.726Z,17.70
2022-09-29T12:55:59.632Z,17.41
2022-09-29T12:58:06.365Z,17.42
2022-09-29T13:00:13.909Z,17.35
2022-09-29T13:02:50.504Z,17.59
2022-09-29T13:05:08.336Z,17.17
2022-09-29T13:07:41.502Z,17.52
2022-09-29T13:10:15.741Z,17.33
2022-09-29T13:12:41.985Z,17.50
2022-09-29T13:14:59.249Z,17.64
2022-09-29T13:17:29.937Z,18.38
2022-09-29T13:20:07.398Z,18.12
2022-09-29T13:22:34.591Z,18.19
2022-09-29T13:25:06.552Z,18.52
2022-09-29T13:27:29.020Z,19.07
2022-09-29T13:29:33.135Z,18.88
2022-09-29T13:31:39.708Z,19.47
2022-09-29T13:33:48.816Z,19.38
2022-09-29T13:35:52.805Z,19.54
2022-09-29T13:38:08.647Z,19.31
2022-09-29T13:40:19.646Z,19.14
2022-09-29T13:42:38.025Z,18.29
2022-09-29T13:44:40.450Z,17.89
2022-09-29T13:46:43.255Z,17.60
2022-09-29T13:48:53.332Z,17.67
2022-09-29T13:50:59.588Z,17.63
2022-09-29T13:53:19.140Z,17.60
2022-09-29T13:55:50.619Z,17.22
2022-09-29T13:57:53.180Z,17.00
2022-09-29T13:59:55.342Z,17.08
2022-09-29T14:01:58.750Z,17.16
2022-09-29T14:04:37.533Z,17.11
2022-09-29T14:06:47.728Z,17.39
2022-09-29T14:08:55.181Z,17.59
2022-09-29T14:11:08.073Z,17.38
2022-09-29T14:13:41.676Z,17.55
2022-09-29T14:15:51.005Z,17.37
2022-09-29T14:18:03.373Z,17.40
2022-09-29T14:20:15.774Z,17.58
2022-09-29T14:22:30.328Z,17.57
2022-09-29T14:24:34.347Z,17.55
2022-09-29T14:26:47.465Z,17.53
2022-09-29T14:28:53.159Z,17.38
2022-09-29T14:31:02.706Z,17.41
2022-09-29T14:33:17.219Z,17.43
2022-09-29T14:35:19.463Z,17.42
2022-09-29T14:37:24.872Z,17.51
2022-09-29T14:39:27.959Z,17.43
2022-09-29T14:41:34.360Z,17.62
2022-09-29T14:44:01.336Z,17.56
2022-09-29T14:46:40.680Z,17.55
2022-09-29T14:49:17.513Z,17.70
2022-09-29T14:51:52.847Z,17.24
2022-09-29T14:54:29.072Z,17.55
2022-09-29T14:56:51.982Z,17.63
2022-09-29T14:59:24.929Z,17.37
2022-09-29T15:01:31.435Z,17.48
2022-09-29T15:03:49.599Z,17.41
2022-09-29T15:06:14.702Z,17.35
2022-09-29T15:08:31.618Z,17.19
2022-09-29T15:10:40.650Z,17.24
2022-09-29T15:12:49.872Z,17.16
2022-09-29T15:14:54.814Z,17.26
2022-09-29T15:17:12.395Z,17.38
2022-09-29T15:19:17.975Z,16.90
2022-09-29T15:21:32.373Z,16.71
2022-09-29T15:24:04.496Z,16.86
2022-09-29T15:26:13.871Z,16.86
2022-09-29T15:28:25.568Z,16.92
2022-09-29T15:30:29.963Z,16.96
2022-09-29T15:32:32.542Z,16.97
2022-09-29T15:34:39.461Z,16.64
2022-09-29T15:36:41.999Z,16.65
2022-09-29T15:38:44.591Z,16.59
2022-09-29T15:40:53.740Z,16.65
2022-09-29T15:42:56.091Z,16.69
2022-09-29T15:45:03.289Z,16.52
2022-09-29T15:47:05.531Z,16.60
2022-09-29T15:49:11.370Z,16.55
2022-09-29T15:51:19.321Z,16.62
2022-09-29T15:53:24.544Z,16.60
2022-09-29T15:55:27.251Z,16.60
2022-09-29T15:57:50.277Z,16.70
2022-09-29T15:59:56.164Z,16.56
2022-09-29T16:02:05.199Z,16.57
2022-09-29T16:06:30.180Z,16.25
2022-09-29T16:08:38.083Z,16.11
2022-09-29T16:10:51.545Z,16.12
2022-09-29T16:13:00.277Z,16.06
2022-09-29T16:15:02.610Z,16.04
2022-09-29T16:17:08.722Z,15.91
2022-09-29T16:19:22.920Z,15.75
2022-09-29T16:21:25.492Z,15.84
2022-09-29T16:23:35.264Z,15.82
2022-09-29T16:25:37.712Z,15.83
2022-09-29T16:27:49.411Z,15.97
2022-09-29T16:30:07.816Z,15.85
2022-09-29T16:32:39.860Z,15.88
2022-09-29T16:34:44.382Z,15.69
2022-09-29T16:37:07.472Z,15.61
2022-09-29T16:39:20.079Z,15.60
2022-09-29T16:41:40.754Z,15.49
2022-09-29T16:43:45.078Z,15.37
2022-09-29T16:45:52.986Z,15.40
2022-09-29T16:47:55.382Z,15.49
2022-09-29T16:49:59.112Z,15.34
2022-09-29T16:52:27.077Z,15.33
2022-09-29T16:54:33.656Z,15.34
2022-09-29T16:56:36.771Z,15.35
2022-09-29T16:58:39.182Z,15.38
2022-09-29T17:00:46.973Z,15.37
2022-09-29T17:02:53.999Z,15.29
2022-09-29T17:04:57.033Z,15.31
2022-09-29T17:07:00.212Z,15.34
2022-09-29T17:09:05.185Z,15.35
2022-09-29T17:11:07.461Z,15.32
2022-09-29T17:13:14.760Z,15.32
2022-09-29T17:15:18.539Z,15.25
2022-09-29T17:17:24.256Z,15.21
2022-09-29T17:19:26.661Z,15.28
2022-09-29T17:21:32.109Z,15.16
2022-09-29T17:23:36.728Z,15.03
2022-09-29T17:25:41.297Z,15.07
2022-09-29T17:28:02.717Z,15.00
2022-09-29T17:30:06.135Z,15.03
2022-09-29T17:32:15.511Z,15.03
2022-09-29T17:34:28.948Z,15.09
2022-09-29T17:36:31.318Z,15.09
2022-09-29T17:38:33.592Z,15.08
2022-09-29T17:41:03.684Z,15.03
2022-09-29T17:43:09.352Z,14.86
2022-09-29T17:45:11.873Z,14.76
2022-09-29T17:47:27.841Z,14.73
2022-09-29T17:49:31.426Z,14.78
2022-09-29T17:51:33.711Z,14.73
2022-09-29T17:53:36.316Z,14.69
2022-09-29T17:55:38.647Z,14.67
2022-09-29T17:57:42.856Z,14.66
2022-09-29T17:59:45.452Z,14.63
2022-09-29T18:01:50.448Z,14.50
2022-09-29T18:03:53.204Z,14.53
2022-09-29T18:05:56.940Z,14.58
2022-09-29T18:07:59.754Z,14.65
2022-09-29T18:10:02.639Z,14.61
2022-09-29T18:12:05.332Z,14.61
2022-09-29T18:14:07.684Z,14.62
2022-09-29T18:16:15.980Z,14.86
2022-09-29T18:18:20.794Z,15.26
2022-09-29T18:20:24.020Z,15.33
2022-09-29T18:22:26.843Z,15.49
2022-09-29T18:24:29.104Z,15.52
2022-09-29T18:26:31.304Z,15.76
2022-09-29T18:28:34.005Z,15.77
2022-09-29T18:30:40.280Z,16.19
2022-09-29T18:32:42.567Z,15.93
2022-09-29T18:34:45.134Z,16.10
2022-09-29T18:36:47.482Z,16.24
2022-09-29T18:38:50.578Z,16.20
2022-09-29T18:40:55.872Z,16.13
2022-09-29T18:42:58.899Z,16.13
2022-09-29T18:45:01.140Z,15.94
2022-09-29T18:47:03.972Z,16.02
2022-09-29T18:49:06.654Z,16.22
2022-09-29T18:51:13.652Z,16.21
2022-09-29T18:53:19.965Z,16.09
2022-09-29T18:55:25.547Z,16.17
2022-09-29T18:57:27.878Z,16.02
2022-09-29T18:59:30.351Z,15.98
2022-09-29T19:01:33.034Z,15.93
2022-09-29T19:03:35.468Z,16.14
2022-09-29T19:05:42.268Z,16.18
2022-09-29T19:07:45.729Z,16.10
2022-09-29T19:09:48.388Z,16.12
2022-09-29T19:11:51.015Z,16.00
2022-09-29T19:13:57.271Z,16.18
2022-09-29T19:15:59.996Z,16.18
2022-09-29T19:18:03.257Z,16.07
2022-09-29T19:20:06.033Z,16.09
2022-09-29T19:22:12.462Z,16.07
2022-09-29T19:24:16.721Z,16.02
2022-09-29T19:26:22.479Z,15.99
2022-09-29T19:28:27.192Z,15.86
2022-09-29T19:30:32.800Z,15.76
2022-09-29T19:32:35.431Z,15.75
2022-09-29T19:34:38.245Z,15.74
2022-09-29T19:36:40.874Z,15.81
2022-09-29T19:38:43.179Z,15.90
2022-09-29T19:40:46.805Z,15.88
2022-09-29T19:42:50.691Z,15.87
2022-09-29T19:44:53.015Z,15.60
2022-09-29T19:46:55.395Z,15.34
2022-09-29T19:48:57.961Z,15.22
2022-09-29T19:51:18.729Z,14.90
2022-09-29T19:53:21.015Z,15.00
2022-09-29T19:55:24.243Z,14.87
2022-09-29T19:57:27.095Z,14.80
2022-09-29T19:59:32.269Z,14.65
2022-09-29T20:01:34.859Z,14.68
2022-09-29T20:03:37.587Z,14.68
2022-09-29T20:05:39.993Z,14.68
2022-09-29T20:07:46.777Z,14.62
2022-09-29T20:09:49.344Z,14.64
2022-09-29T20:11:51.873Z,14.55
2022-09-29T20:13:54.245Z,14.61
2022-09-29T20:15:57.092Z,14.64
2022-09-29T20:17:59.703Z,14.58
2022-09-29T20:20:02.356Z,14.49
2022-09-29T20:22:08.392Z,14.55
2022-09-29T20:24:14.504Z,14.33
2022-09-29T20:26:16.794Z,14.07
2022-09-29T20:28:19.270Z,14.20
2022-09-29T20:30:21.826Z,13.90
2022-09-29T20:32:24.060Z,13.79
2022-09-29T20:34:26.663Z,13.90
2022-09-29T20:36:28.938Z,13.92
2022-09-29T20:38:43.432Z,14.01
2022-09-29T20:40:47.491Z,14.08
2022-09-29T20:42:50.003Z,14.22
2022-09-29T20:44:56.340Z,14.28
2022-09-29T20:46:59.206Z,14.20
2022-09-29T20:49:03.825Z,14.09
2022-09-29T20:51:16.101Z,13.86
2022-09-29T20:53:19.654Z,13.87
2022-09-29T20:55:21.902Z,13.80
2022-09-29T20:57:24.212Z,13.82
2022-09-29T20:59:26.803Z,13.81
2022-09-29T21:01:30.739Z,13.89
2022-09-29T21:03:33.117Z,13.94
2022-09-29T21:05:35.744Z,13.98
2022-09-29T21:07:38.616Z,13.88
2022-09-29T21:09:40.871Z,13.86
2022-09-29T21:11:43.635Z,13.94
2022-09-29T21:13:47.592Z,14.07
2022-09-29T21:15:49.981Z,14.06
2022-09-29T21:17:52.696Z,14.12
2022-09-29T21:19:55.145Z,14.03
2022-09-29T21:21:57.474Z,13.96
2022-09-29T21:24:02.695Z,14.12
2022-09-29T21:26:14.150Z,14.18
2022-09-29T21:28:17.794Z,13.97
2022-09-29T21:30:20.791Z,13.76
2022-09-29T21:32:23.126Z,13.75
2022-09-29T21:34:25.714Z,13.77
2022-09-29T21:36:30.124Z,13.70
2022-09-29T21:38:35.321Z,13.30
2022-09-29T21:40:37.634Z,12.70
2022-09-29T21:42:40.102Z,12.07
2022-09-29T21:44:42.336Z,12.08
2022-09-29T21:46:45.253Z,12.04
2022-09-29T21:48:52.201Z,12.02
2022-09-29T21:51:02.090Z,12.09
2022-09-29T21:53:04.324Z,12.10
2022-09-29T21:55:07.168Z,12.35
2022-09-29T21:57:10.132Z,12.36
2022-09-29T21:59:15.553Z,12.37
2022-09-29T22:01:18.638Z,12.49
2022-09-29T22:03:21.194Z,12.44
2022-09-29T22:05:23.917Z,12.37
2022-09-29T22:07:26.122Z,12.44
2022-09-29T22:09:28.674Z,12.45
2022-09-29T22:11:36.123Z,12.33
2022-09-29T22:13:38.560Z,12.37
2022-09-29T22:15:41.135Z,12.39
2022-09-29T22:17:43.560Z,12.45
2022-09-29T22:19:45.767Z,12.50
2022-09-29T22:21:48.242Z,12.53
2022-09-29T22:23:58.847Z,12.35
2022-09-29T22:26:01.774Z,12.46
2022-09-29T22:28:04.264Z,12.40
2022-09-29T22:30:07.011Z,12.16
2022-09-29T22:32:09.219Z,12.08
2022-09-29T22:34:11.702Z,11.97
2022-09-29T22:36:13.960Z,11.97
2022-09-29T22:38:16.138Z,12.04
2022-09-29T22:40:18.758Z,12.15
2022-09-29T22:42:21.454Z,12.09
2022-09-29T22:44:23.715Z,12.00
2022-09-29T22:46:29.009Z,12.00
2022-09-29T22:48:31.253Z,12.02
